createdAt,value
2018-11-06T00:02:13.925Z,70.10
2018-11-06T00:04:57.727Z,70.25
2018-11-06T00:07:22.822Z,70.29
2018-11-06T00:09:47.947Z,70.40
2018-11-06T00:12:13.119Z,70.47
2018-11-06T00:14:38.213Z,70.26
2018-11-06T00:17:03.320Z,70.05
2018-11-06T00:19:28.413Z,70.12
2018-11-06T00:21:53.520Z,69.51
2018-11-06T00:24:18.603Z,69.87
2018-11-06T00:26:43.688Z,69.73
2018-11-06T00:29:08.763Z,69.89
2018-11-06T00:34:10.702Z,69.97
2018-11-06T00:36:35.764Z,70.04
2018-11-06T00:39:00.852Z,69.79
2018-11-06T00:41:25.964Z,69.75
2018-11-06T00:43:51.133Z,69.91
2018-11-06T00:46:16.239Z,69.73
2018-11-06T00:48:41.503Z,69.24
2018-11-06T00:51:06.773Z,69.68
2018-11-06T00:53:31.847Z,69.41
2018-11-06T00:55:56.972Z,69.47
2018-11-06T00:58:22.072Z,70.59
2018-11-06T01:00:47.199Z,70.09
2018-11-06T01:05:49.041Z,70.04
2018-11-06T01:08:14.189Z,70.78
2018-11-06T01:10:39.264Z,70.44
2018-11-06T01:13:04.372Z,70.19
2018-11-06T01:15:29.467Z,69.89
2018-11-06T01:17:54.580Z,69.72
2018-11-06T01:20:20.138Z,69.90
2018-11-06T01:22:45.518Z,69.55
2018-11-06T01:25:11.169Z,70.35
2018-11-06T01:27:36.296Z,70.24
2018-11-06T01:30:01.711Z,70.90
2018-11-06T01:35:03.196Z,69.99
2018-11-06T01:37:28.287Z,69.93
2018-11-06T01:39:53.675Z,70.50
2018-11-06T01:42:18.769Z,70.27
2018-11-06T01:44:43.867Z,70.96
2018-11-06T01:47:08.974Z,70.91
2018-11-06T01:49:34.055Z,71.76
2018-11-06T01:51:59.141Z,71.24
2018-11-06T01:57:00.677Z,71.39
2018-11-06T01:59:25.873Z,71.61
2018-11-06T02:01:51.018Z,70.69
2018-11-06T02:04:16.083Z,71.53
2018-11-06T02:06:41.204Z,70.83
2018-11-06T02:11:44.805Z,69.55
2018-11-06T02:14:09.908Z,69.71
2018-11-06T02:19:34.897Z,69.70
2018-11-06T02:22:00.020Z,69.64
2018-11-06T02:24:25.181Z,69.56
2018-11-06T02:26:50.277Z,70.67
2018-11-06T02:29:15.369Z,70.21
2018-11-06T02:31:59.399Z,69.86
2018-11-06T02:34:24.448Z,69.90
2018-11-06T02:36:49.592Z,69.80
2018-11-06T02:41:51.279Z,69.08
2018-11-06T02:44:16.329Z,69.26
2018-11-06T02:46:41.440Z,69.25
2018-11-06T02:49:06.645Z,68.90
2018-11-06T02:51:31.690Z,68.88
2018-11-06T02:53:56.788Z,68.55
2018-11-06T02:56:21.872Z,68.38
2018-11-06T02:59:05.929Z,68.04
2018-11-06T03:01:30.997Z,68.22
2018-11-06T03:03:56.055Z,68.42
2018-11-06T03:06:21.134Z,68.36
2018-11-06T03:08:46.198Z,68.01
2018-11-06T03:11:11.295Z,68.28
2018-11-06T03:13:36.364Z,68.56
2018-11-06T03:16:01.449Z,68.91
2018-11-06T03:18:26.528Z,68.48
2018-11-06T03:20:51.604Z,68.15
2018-11-06T03:23:16.711Z,68.02
2018-11-06T03:25:41.766Z,68.19
2018-11-06T03:28:06.977Z,68.06
2018-11-06T03:30:32.046Z,69.86
2018-11-06T03:32:57.138Z,69.67
2018-11-06T03:35:22.243Z,69.05
2018-11-06T03:37:47.359Z,68.89
2018-11-06T03:40:12.924Z,69.24
2018-11-06T03:42:38.244Z,69.14
2018-11-06T03:50:16.035Z,68.12
2018-11-06T03:52:41.203Z,68.01
2018-11-06T03:55:06.619Z,68.85
2018-11-06T03:57:31.749Z,68.75
2018-11-06T03:59:56.828Z,68.78
2018-11-06T04:02:22.009Z,68.04
2018-11-06T04:04:47.124Z,68.63
2018-11-06T04:07:12.336Z,68.35
2018-11-06T04:09:37.491Z,68.69
2018-11-06T04:12:02.586Z,68.89
2018-11-06T04:14:27.658Z,68.76
2018-11-06T04:16:52.795Z,68.60
2018-11-06T04:19:17.865Z,68.52
2018-11-06T04:21:42.967Z,68.37
2018-11-06T04:24:09.592Z,68.50
2018-11-06T04:26:35.406Z,68.55
2018-11-06T04:29:00.539Z,68.57
2018-11-06T04:31:25.642Z,68.56
2018-11-06T04:33:50.788Z,68.44
2018-11-06T04:36:15.897Z,68.10
2018-11-06T04:38:41.205Z,68.18
2018-11-06T04:43:42.747Z,67.93
2018-11-06T04:46:07.838Z,68.39
2018-11-06T04:48:32.940Z,68.55
2018-11-06T04:50:58.060Z,68.81
2018-11-06T04:53:23.198Z,68.59
2018-11-06T04:55:48.285Z,68.40
2018-11-06T04:58:13.367Z,68.16
2018-11-06T05:03:14.507Z,67.68
2018-11-06T05:05:39.552Z,67.70
2018-11-06T05:08:04.715Z,67.92
2018-11-06T05:10:29.829Z,67.84
2018-11-06T05:12:54.940Z,67.84
2018-11-06T05:15:20.041Z,67.44
2018-11-06T05:17:45.180Z,67.25
2018-11-06T05:22:48.267Z,67.67
2018-11-06T05:25:32.370Z,67.84
2018-11-06T05:27:57.452Z,68.48
2018-11-06T05:30:22.503Z,68.39
2018-11-06T05:32:47.642Z,69.00
2018-11-06T05:35:13.045Z,68.43
2018-11-06T05:37:38.242Z,67.86
2018-11-06T05:40:41.373Z,67.88
2018-11-06T05:43:06.488Z,68.19
2018-11-06T05:45:31.712Z,68.06
2018-11-06T05:47:56.764Z,67.57
2018-11-06T05:53:41.788Z,68.54
2018-11-06T05:56:07.074Z,68.08
2018-11-06T05:58:32.197Z,68.28
2018-11-06T06:00:57.296Z,68.35
2018-11-06T06:03:22.425Z,69.13
2018-11-06T06:05:47.506Z,69.12
2018-11-06T06:08:12.590Z,68.67
2018-11-06T06:10:56.734Z,68.71
2018-11-06T06:15:58.485Z,68.38
2018-11-06T06:18:23.583Z,68.80
2018-11-06T06:23:25.540Z,68.87
2018-11-06T06:25:50.612Z,68.96
2018-11-06T06:28:15.747Z,68.84
2018-11-06T06:30:40.829Z,68.88
2018-11-06T06:33:05.962Z,68.19
2018-11-06T06:35:31.105Z,68.19
2018-11-06T06:37:57.106Z,68.70
2018-11-06T06:40:22.262Z,68.61
2018-11-06T06:42:47.877Z,68.29
2018-11-06T06:45:14.581Z,68.28
2018-11-06T06:47:39.807Z,68.67
2018-11-06T06:52:42.941Z,68.85
2018-11-06T06:55:27.520Z,68.83
2018-11-06T06:57:52.617Z,69.04
2018-11-06T07:00:36.710Z,68.89
2018-11-06T07:03:01.833Z,69.06
2018-11-06T07:08:03.637Z,69.00
2018-11-06T07:10:47.704Z,69.04
2018-11-06T07:13:12.828Z,69.04
2018-11-06T07:15:37.935Z,69.87
2018-11-06T07:18:02.995Z,70.43
2018-11-06T07:20:28.080Z,71.24
2018-11-06T07:22:53.306Z,70.53
2018-11-06T07:25:18.430Z,70.72
2018-11-06T07:27:44.524Z,70.17
2018-11-06T07:30:12.231Z,70.15
2018-11-06T07:32:37.401Z,70.00
2018-11-06T07:35:02.682Z,70.42
2018-11-06T07:37:27.582Z,72.20
2018-11-06T07:39:52.657Z,72.47
2018-11-06T07:42:17.775Z,72.08
2018-11-06T07:44:42.854Z,71.36
2018-11-06T07:47:07.918Z,70.60
2018-11-06T07:49:52.041Z,70.25
2018-11-06T07:52:17.041Z,70.02
2018-11-06T07:54:42.224Z,70.06
2018-11-06T07:57:07.345Z,69.75
2018-11-06T07:59:32.439Z,69.98
2018-11-06T08:01:57.648Z,69.91
2018-11-06T08:04:22.786Z,71.15
2018-11-06T08:06:47.953Z,71.13
2018-11-06T08:09:13.036Z,71.02
2018-11-06T08:11:38.802Z,71.50
2018-11-06T08:14:03.907Z,72.39
2018-11-06T08:16:29.075Z,73.41
2018-11-06T08:18:54.206Z,73.46
2018-11-06T08:21:19.348Z,73.44
2018-11-06T08:23:44.446Z,75.48
2018-11-06T08:26:09.640Z,74.92
2018-11-06T08:28:34.744Z,75.24
2018-11-06T08:31:00.151Z,75.38
2018-11-06T08:33:24.965Z,74.77
2018-11-06T08:35:50.058Z,74.63
2018-11-06T08:38:15.208Z,75.24
2018-11-06T08:40:40.287Z,75.32
2018-11-06T08:43:05.405Z,75.01
2018-11-06T08:45:30.564Z,74.60
2018-11-06T08:47:55.830Z,74.67
2018-11-06T08:50:21.227Z,74.17
2018-11-06T08:52:46.343Z,74.17
2018-11-06T08:55:12.596Z,73.58
2018-11-06T08:57:37.918Z,73.19
2018-11-06T09:00:03.020Z,73.00
2018-11-06T09:02:28.126Z,72.73
2018-11-06T09:04:53.196Z,72.85
2018-11-06T09:07:18.285Z,72.93
2018-11-06T09:10:02.389Z,72.45
2018-11-06T09:12:27.460Z,72.82
2018-11-06T09:14:52.539Z,73.39
2018-11-06T09:17:17.668Z,72.18
2018-11-06T09:20:01.826Z,71.91
2018-11-06T09:22:26.935Z,71.86
2018-11-06T09:24:52.064Z,71.94
2018-11-06T09:27:17.201Z,72.21
2018-11-06T09:29:42.437Z,71.37
2018-11-06T09:34:44.513Z,71.26
2018-11-06T09:37:09.608Z,71.30
2018-11-06T09:39:34.714Z,70.72
2018-11-06T09:41:59.893Z,70.58
2018-11-06T09:44:24.970Z,70.40
2018-11-06T09:46:50.163Z,70.42
2018-11-06T09:49:15.328Z,70.53
2018-11-06T09:51:40.445Z,69.58
2018-11-06T09:54:05.819Z,69.36
2018-11-06T09:56:30.913Z,69.41
2018-11-06T09:58:56.049Z,69.02
2018-11-06T10:01:21.175Z,68.29
2018-11-06T10:06:23.381Z,68.24
2018-11-06T10:08:48.386Z,67.46
2018-11-06T10:11:13.504Z,67.05
2018-11-06T10:13:38.761Z,66.98
2018-11-06T10:16:03.878Z,66.88
2018-11-06T10:18:28.996Z,66.21
2018-11-06T10:20:54.114Z,65.95
2018-11-06T10:23:19.256Z,65.42
2018-11-06T10:25:44.380Z,64.47
2018-11-06T10:28:09.511Z,64.63
2018-11-06T10:30:53.673Z,64.72
2018-11-06T10:33:18.765Z,63.92
2018-11-06T10:36:02.850Z,64.45
2018-11-06T10:38:46.934Z,63.59
2018-11-06T10:41:12.146Z,62.25
2018-11-06T10:43:37.308Z,61.79
2018-11-06T10:46:21.372Z,60.67
2018-11-06T10:49:05.445Z,59.94
2018-11-06T10:51:30.657Z,59.18
2018-11-06T10:54:14.671Z,58.57
2018-11-06T10:56:39.818Z,58.30
2018-11-06T10:59:04.941Z,55.78
2018-11-06T11:01:48.767Z,53.69
2018-11-06T11:04:32.585Z,52.47
2018-11-06T11:07:16.662Z,51.22
2018-11-06T11:09:41.763Z,49.60
2018-11-06T11:12:06.974Z,49.87
2018-11-06T11:14:32.092Z,48.52
2018-11-06T11:16:57.199Z,48.71
2018-11-06T11:21:58.301Z,46.87
2018-11-06T11:24:23.400Z,46.52
2018-11-06T11:26:48.542Z,46.34
2018-11-06T11:29:13.645Z,45.71
2018-11-06T11:31:38.743Z,44.56
2018-11-06T11:37:18.651Z,44.62
2018-11-06T11:39:43.838Z,46.40
2018-11-06T11:42:08.938Z,46.80
2018-11-06T11:44:34.059Z,46.16
2018-11-06T11:46:59.170Z,47.13
2018-11-06T11:49:24.293Z,47.91
2018-11-06T11:51:49.449Z,48.13
2018-11-06T11:54:14.550Z,48.35
2018-11-06T11:56:39.694Z,48.31
2018-11-06T11:59:04.796Z,46.80
2018-11-06T12:01:29.876Z,45.51
2018-11-06T12:04:13.958Z,44.14
2018-11-06T12:06:39.037Z,43.00
2018-11-06T12:09:05.390Z,40.32
2018-11-06T12:11:30.566Z,38.81
2018-11-06T12:13:55.698Z,37.31
2018-11-06T12:16:20.817Z,36.57
2018-11-06T12:18:45.902Z,35.07
2018-11-06T12:23:47.684Z,36.27
2018-11-06T12:26:12.770Z,35.01
2018-11-06T12:28:37.890Z,33.74
2018-11-06T12:31:02.983Z,33.16
2018-11-06T12:33:28.107Z,34.69
2018-11-06T12:35:53.177Z,36.29
2018-11-06T12:38:18.313Z,37.54
2018-11-06T12:40:43.434Z,38.47
2018-11-06T12:43:11.260Z,39.02
2018-11-06T12:45:55.170Z,40.52
2018-11-06T12:48:20.312Z,40.52
2018-11-06T12:50:45.503Z,39.97
2018-11-06T12:53:12.621Z,39.96
2018-11-06T12:55:56.707Z,40.82
2018-11-06T12:58:21.868Z,39.77
2018-11-06T13:01:05.933Z,39.66
2018-11-06T13:03:31.184Z,39.81
2018-11-06T13:05:56.212Z,38.83
2018-11-06T13:08:21.313Z,38.83
2018-11-06T13:10:48.059Z,38.94
2018-11-06T13:13:13.167Z,39.73
2018-11-06T13:15:38.409Z,39.58
2018-11-06T13:18:03.462Z,40.60
2018-11-06T13:20:50.630Z,41.86
2018-11-06T13:23:15.773Z,42.86
2018-11-06T13:25:41.046Z,43.06
2018-11-06T13:28:06.218Z,42.49
2018-11-06T13:30:31.360Z,42.25
2018-11-06T13:32:56.503Z,43.44
2018-11-06T13:37:57.708Z,45.12
2018-11-06T13:40:22.842Z,45.45
2018-11-06T13:42:48.100Z,44.88
2018-11-06T13:45:31.908Z,42.52
2018-11-06T13:47:56.827Z,41.19
2018-11-06T13:50:40.931Z,42.19
2018-11-06T13:53:25.019Z,43.10
2018-11-06T13:55:50.148Z,44.91
2018-11-06T13:58:15.244Z,45.81
2018-11-06T14:00:40.350Z,46.68
2018-11-06T14:05:41.410Z,45.49
2018-11-06T14:08:06.908Z,44.33
2018-11-06T14:10:32.008Z,44.23
2018-11-06T14:12:57.163Z,45.21
2018-11-06T14:15:22.303Z,46.14
2018-11-06T14:17:47.424Z,47.18
2018-11-06T14:20:13.918Z,47.09
2018-11-06T14:22:39.034Z,47.27
2018-11-06T14:25:04.177Z,47.40
2018-11-06T14:27:29.378Z,47.39
2018-11-06T14:29:54.704Z,48.28
2018-11-06T14:32:20.147Z,48.61
2018-11-06T14:34:45.255Z,49.61
2018-11-06T14:37:10.418Z,50.22
2018-11-06T14:39:35.496Z,50.64
2018-11-06T14:42:00.612Z,51.07
2018-11-06T14:44:25.712Z,51.51
2018-11-06T14:46:50.788Z,52.22
2018-11-06T14:49:15.979Z,52.29
2018-11-06T14:51:40.981Z,52.79
2018-11-06T14:54:06.213Z,53.73
2018-11-06T14:56:31.415Z,53.82
2018-11-06T14:59:15.654Z,53.93
2018-11-06T15:01:40.813Z,54.07
2018-11-06T15:04:05.966Z,54.99
2018-11-06T15:06:31.051Z,54.88
2018-11-06T15:09:09.449Z,54.95
2018-11-06T15:11:34.538Z,54.89
2018-11-06T15:14:18.586Z,55.43
2018-11-06T15:16:43.696Z,55.82
2018-11-06T15:19:08.875Z,56.37
2018-11-06T15:21:33.918Z,56.37
2018-11-06T15:23:59.178Z,56.84
2018-11-06T15:26:43.309Z,57.19
2018-11-06T15:31:47.638Z,57.82
2018-11-06T15:34:31.691Z,57.60
2018-11-06T15:37:15.810Z,57.96
2018-11-06T15:39:40.944Z,58.14
2018-11-06T15:42:06.175Z,58.29
2018-11-06T15:44:31.188Z,58.84
2018-11-06T15:46:56.327Z,58.46
2018-11-06T15:49:21.505Z,59.26
2018-11-06T15:51:46.611Z,58.91
2018-11-06T15:54:11.768Z,59.16
2018-11-06T15:56:55.862Z,59.30
2018-11-06T15:59:21.009Z,59.13
2018-11-06T16:02:05.081Z,59.50
2018-11-06T16:04:42.223Z,60.08
2018-11-06T16:07:07.959Z,59.88
2018-11-06T16:09:33.128Z,59.79
2018-11-06T16:11:58.262Z,60.07
2018-11-06T16:14:23.473Z,60.21
2018-11-06T16:16:48.619Z,60.22
2018-11-06T16:19:32.666Z,60.15
2018-11-06T16:21:57.799Z,60.40
2018-11-06T16:24:41.894Z,60.47
2018-11-06T16:27:07.271Z,60.69
2018-11-06T16:29:32.395Z,60.65
2018-11-06T16:31:57.542Z,60.62
2018-11-06T16:34:22.664Z,60.85
2018-11-06T16:36:47.803Z,60.97
2018-11-06T16:39:31.902Z,61.63
2018-11-06T16:41:57.051Z,61.24
2018-11-06T16:44:22.181Z,61.03
2018-11-06T16:46:47.321Z,61.07
2018-11-06T16:49:12.426Z,61.33
2018-11-06T16:51:37.631Z,61.48
2018-11-06T16:54:02.759Z,61.54
2018-11-06T16:56:27.895Z,61.56
2018-11-06T16:58:53.053Z,61.65
2018-11-06T17:01:37.134Z,61.79
2018-11-06T17:04:02.322Z,62.05
2018-11-06T17:06:57.846Z,61.80
2018-11-06T17:09:22.985Z,62.15
2018-11-06T17:11:48.103Z,62.66
2018-11-06T17:14:13.600Z,62.82
2018-11-06T17:16:38.759Z,62.49
2018-11-06T17:19:22.853Z,62.60
2018-11-06T17:24:43.431Z,62.62
2018-11-06T17:27:08.575Z,62.85
2018-11-06T17:29:33.698Z,62.94
2018-11-06T17:31:58.887Z,63.39
2018-11-06T17:34:24.066Z,62.94
2018-11-06T17:36:49.208Z,63.16
2018-11-06T17:39:14.967Z,63.20
2018-11-06T17:41:40.131Z,63.26
2018-11-06T17:44:05.270Z,63.28
2018-11-06T17:46:30.444Z,62.99
2018-11-06T17:48:55.650Z,63.08
2018-11-06T17:51:21.295Z,63.52
2018-11-06T17:53:46.485Z,63.33
2018-11-06T17:56:12.115Z,63.33
2018-11-06T17:58:37.679Z,63.59
2018-11-06T18:01:02.786Z,63.41
2018-11-06T18:06:06.466Z,63.56
2018-11-06T18:08:31.605Z,63.65
2018-11-06T18:10:56.760Z,63.71
2018-11-06T18:13:21.902Z,64.01
2018-11-06T18:15:47.076Z,64.00
2018-11-06T18:18:12.226Z,64.13
2018-11-06T18:20:37.345Z,63.97
2018-11-06T18:23:21.417Z,64.09
2018-11-06T18:25:46.658Z,63.71
2018-11-06T18:28:11.659Z,63.82
2018-11-06T18:30:36.784Z,63.74
2018-11-06T18:33:20.847Z,63.95
2018-11-06T18:35:45.930Z,63.69
2018-11-06T18:38:11.136Z,63.86
2018-11-06T18:40:36.264Z,64.01
2018-11-06T18:43:01.407Z,64.15
2018-11-06T18:45:26.559Z,64.12
2018-11-06T18:47:51.738Z,64.44
2018-11-06T18:50:35.829Z,64.38
2018-11-06T18:53:00.971Z,64.72
2018-11-06T18:55:26.098Z,64.55
2018-11-06T18:57:51.367Z,64.48
2018-11-06T19:00:35.087Z,64.65
2018-11-06T19:03:00.244Z,64.74
2018-11-06T19:05:44.352Z,64.85
2018-11-06T19:08:28.433Z,64.61
2018-11-06T19:10:53.560Z,64.64
2018-11-06T19:15:55.056Z,64.86
2018-11-06T19:18:20.241Z,65.10
2018-11-06T19:21:04.349Z,65.07
2018-11-06T19:23:29.479Z,65.36
2018-11-06T19:25:54.605Z,65.18
2018-11-06T19:28:19.726Z,64.98
2018-11-06T19:30:44.830Z,65.24
2018-11-06T19:33:09.977Z,65.26
2018-11-06T19:35:35.107Z,65.21
2018-11-06T19:38:00.307Z,64.95
2018-11-06T19:40:25.476Z,65.19
2018-11-06T19:43:09.602Z,65.16
2018-11-06T19:45:34.739Z,65.16
2018-11-06T19:47:59.857Z,65.24
2018-11-06T19:50:25.019Z,65.20
2018-11-06T19:52:50.219Z,65.34
2018-11-06T19:55:16.315Z,65.35
2018-11-06T19:57:41.636Z,65.27
2018-11-06T20:00:28.157Z,65.13
2018-11-06T20:02:54.129Z,65.39
2018-11-06T20:05:19.433Z,65.24
2018-11-06T20:07:45.157Z,65.40
2018-11-06T20:10:12.482Z,65.34
2018-11-06T20:12:37.690Z,65.74
2018-11-06T20:15:21.777Z,65.78
2018-11-06T20:17:47.470Z,65.45
2018-11-06T20:20:15.022Z,65.66
2018-11-06T20:22:40.213Z,65.57
2018-11-06T20:25:05.404Z,65.44
2018-11-06T20:27:30.534Z,65.49
2018-11-06T20:29:55.822Z,65.62
2018-11-06T20:32:20.874Z,65.68
2018-11-06T20:34:45.994Z,65.99
2018-11-06T20:37:11.163Z,65.64
2018-11-06T20:39:36.394Z,66.18
2018-11-06T20:42:20.453Z,66.31
2018-11-06T20:45:04.630Z,66.40
2018-11-06T20:47:29.795Z,66.25
2018-11-06T20:49:55.414Z,66.29
2018-11-06T20:52:39.443Z,65.98
2018-11-06T20:55:04.586Z,66.19
2018-11-06T20:57:29.797Z,66.19
2018-11-06T20:59:55.107Z,66.30
2018-11-06T21:02:20.290Z,66.27
2018-11-06T21:05:04.398Z,66.40
2018-11-06T21:07:29.584Z,66.41
2018-11-06T21:09:54.667Z,66.35
2018-11-06T21:12:38.836Z,66.29
2018-11-06T21:15:03.963Z,66.33
2018-11-06T21:20:06.610Z,67.00
2018-11-06T21:22:31.713Z,66.70
2018-11-06T21:24:57.055Z,66.63
2018-11-06T21:27:41.525Z,67.27
2018-11-06T21:30:26.342Z,66.82
2018-11-06T21:32:52.616Z,67.08
2018-11-06T21:35:17.846Z,66.95
2018-11-06T21:37:42.967Z,66.97
2018-11-06T21:40:27.125Z,66.99
2018-11-06T21:42:52.381Z,67.19
2018-11-06T21:45:36.504Z,66.92
2018-11-06T21:48:01.616Z,67.24
2018-11-06T21:50:26.764Z,67.36
2018-11-06T21:52:51.890Z,67.72
2018-11-06T21:55:18.108Z,67.67
2018-11-06T21:57:43.223Z,67.65
2018-11-06T22:00:10.890Z,67.64
2018-11-06T22:02:35.931Z,67.54
2018-11-06T22:05:01.074Z,67.45
2018-11-06T22:07:26.222Z,68.18
2018-11-06T22:09:51.347Z,67.88
2018-11-06T22:12:16.620Z,67.89
2018-11-06T22:14:41.621Z,67.91
2018-11-06T22:17:06.809Z,68.02
2018-11-06T22:19:31.913Z,67.83
2018-11-06T22:21:57.038Z,67.98
2018-11-06T22:24:22.172Z,67.66
2018-11-06T22:26:47.286Z,67.80
2018-11-06T22:29:12.555Z,67.96
2018-11-06T22:31:37.842Z,67.93
2018-11-06T22:34:02.879Z,67.99
2018-11-06T22:36:28.009Z,67.63
2018-11-06T22:38:53.111Z,67.84
2018-11-06T22:41:18.327Z,67.97
2018-11-06T22:43:43.479Z,67.83
2018-11-06T22:46:08.544Z,67.84
2018-11-06T22:48:33.648Z,67.84
2018-11-06T22:50:58.794Z,67.87
2018-11-06T22:53:23.948Z,67.77
2018-11-06T22:55:49.043Z,67.65
2018-11-06T22:58:14.152Z,67.54
2018-11-06T23:00:57.950Z,67.34
2018-11-06T23:03:23.059Z,67.63
2018-11-06T23:05:48.224Z,67.51
2018-11-06T23:08:31.983Z,67.58
2018-11-06T23:10:57.242Z,67.66
2018-11-06T23:13:22.301Z,67.54
2018-11-06T23:15:47.442Z,68.14
2018-11-06T23:18:12.599Z,69.72
2018-11-06T23:20:37.781Z,69.56
2018-11-06T23:23:15.261Z,69.88
2018-11-06T23:25:40.378Z,68.94
2018-11-06T23:28:07.762Z,68.71
2018-11-06T23:30:32.894Z,70.66
2018-11-06T23:32:58.275Z,70.83
2018-11-06T23:35:23.355Z,71.37
2018-11-06T23:37:48.484Z,71.48
2018-11-06T23:40:13.600Z,70.80
2018-11-06T23:42:38.748Z,69.73
2018-11-06T23:45:04.188Z,69.28
2018-11-06T23:47:29.320Z,68.62
2018-11-06T23:49:54.457Z,68.36
2018-11-06T23:52:19.559Z,68.20
2018-11-06T23:54:44.693Z,68.56
2018-11-06T23:57:09.817Z,68.37
2018-11-06T23:59:34.982Z,68.25
